createdAt,value
2019-02-16T00:00:02.271Z,58.50
2019-02-16T00:02:34.720Z,52.00
2019-02-16T00:05:05.386Z,46.40
2019-02-16T00:07:36.174Z,41.00
2019-02-16T00:10:07.014Z,45.00
2019-02-16T00:12:37.682Z,42.60
2019-02-16T00:15:08.302Z,38.20
2019-02-16T00:17:39.125Z,41.80
2019-02-16T00:20:09.786Z,41.00
2019-02-16T00:22:40.974Z,39.00
2019-02-16T00:25:11.898Z,42.00
2019-02-16T00:27:42.796Z,40.00
2019-02-16T00:30:13.668Z,46.00
2019-02-16T00:32:48.120Z,42.00
2019-02-16T00:35:18.951Z,37.20
2019-02-16T00:37:49.715Z,39.20
2019-02-16T00:40:20.590Z,43.75
2019-02-16T00:42:51.402Z,43.40
2019-02-16T00:45:22.168Z,42.00
2019-02-16T00:47:53.091Z,45.60
2019-02-16T00:50:23.831Z,43.60
2019-02-16T00:52:54.724Z,39.50
2019-02-16T00:55:25.519Z,40.20
2019-02-16T00:57:56.292Z,48.25
2019-02-16T01:00:27.062Z,40.20
2019-02-16T01:02:57.866Z,39.00
2019-02-16T01:05:28.513Z,40.00
2019-02-16T01:07:59.812Z,40.60
2019-02-16T01:10:30.819Z,37.75
2019-02-16T01:13:01.638Z,33.60
2019-02-16T01:15:32.408Z,26.00
2019-02-16T01:18:03.196Z,27.20
2019-02-16T01:20:33.946Z,31.75
2019-02-16T01:23:04.968Z,35.00
2019-02-16T01:25:35.742Z,32.60
2019-02-16T01:28:06.634Z,32.20
2019-02-16T01:30:37.427Z,31.40
2019-02-16T01:33:08.176Z,31.60
2019-02-16T01:35:38.903Z,31.50
2019-02-16T01:38:09.676Z,30.00
2019-02-16T01:40:40.440Z,42.00
2019-02-16T01:43:11.247Z,43.80
2019-02-16T01:45:42.076Z,41.00
2019-02-16T01:48:12.915Z,40.00
2019-02-16T01:50:43.771Z,44.00
2019-02-16T01:53:14.597Z,52.00
2019-02-16T01:55:45.123Z,49.00
2019-02-16T01:58:16.027Z,47.25
2019-02-16T02:00:47.636Z,39.00
2019-02-16T02:03:18.509Z,39.50
2019-02-16T02:05:49.298Z,39.40
2019-02-16T02:08:21.060Z,42.50
2019-02-16T02:10:51.815Z,45.50
2019-02-16T02:13:22.581Z,40.00
2019-02-16T02:15:53.359Z,43.00
2019-02-16T02:18:24.255Z,36.20
2019-02-16T02:20:54.927Z,44.00
2019-02-16T02:23:26.001Z,37.00
2019-02-16T02:25:56.604Z,40.25
2019-02-16T02:28:27.183Z,37.40
2019-02-16T02:30:57.800Z,39.60
2019-02-16T02:33:28.601Z,40.00
2019-02-16T02:35:59.358Z,34.40
2019-02-16T02:38:29.947Z,36.00
2019-02-16T02:41:02.260Z,35.60
2019-02-16T02:43:33.054Z,36.50
2019-02-16T02:46:03.856Z,33.00
2019-02-16T02:48:34.550Z,32.00
2019-02-16T02:51:05.326Z,30.00
2019-02-16T02:53:36.029Z,32.00
2019-02-16T02:56:06.752Z,32.20
2019-02-16T02:58:37.474Z,40.00
2019-02-16T03:01:08.239Z,31.00
2019-02-16T03:03:39.035Z,29.80
2019-02-16T03:06:09.724Z,34.00
2019-02-16T03:08:40.615Z,38.80
2019-02-16T03:11:11.413Z,38.00
2019-02-16T03:13:42.262Z,27.80
2019-02-16T03:16:13.137Z,32.50
2019-02-16T03:18:43.862Z,33.00
2019-02-16T03:21:16.201Z,30.80
2019-02-16T03:23:53.180Z,33.00
2019-02-16T03:27:09.356Z,36.50
2019-02-16T03:30:29.958Z,36.00
2019-02-16T03:33:34.710Z,32.00
2019-02-16T03:36:51.513Z,32.80
2019-02-16T03:39:34.750Z,36.75
2019-02-16T03:42:05.532Z,27.80
2019-02-16T03:44:36.422Z,30.00
2019-02-16T03:47:07.226Z,28.40
2019-02-16T03:49:37.898Z,26.50
2019-02-16T03:52:13.732Z,30.80
2019-02-16T03:54:41.086Z,36.00
2019-02-16T03:57:11.937Z,33.00
2019-02-16T03:59:42.784Z,26.80
2019-02-16T04:02:13.437Z,29.00
2019-02-16T04:04:44.229Z,30.00
2019-02-16T04:07:15.007Z,32.20
2019-02-16T04:09:45.808Z,31.25
2019-02-16T04:12:16.497Z,36.60
2019-02-16T04:14:47.268Z,27.80
2019-02-16T04:17:18.037Z,33.00
2019-02-16T04:19:48.726Z,31.80
2019-02-16T04:22:24.527Z,31.20
2019-02-16T04:24:52.026Z,35.50
2019-02-16T04:27:22.818Z,32.75
2019-02-16T04:29:53.548Z,35.00
2019-02-16T04:32:24.315Z,29.20
2019-02-16T04:34:55.082Z,33.00
2019-02-16T04:37:25.953Z,32.00
2019-02-16T04:39:56.745Z,33.80
2019-02-16T04:42:27.533Z,32.00
2019-02-16T04:44:58.205Z,38.40
2019-02-16T04:47:29.017Z,32.40
2019-02-16T04:49:59.778Z,25.00
2019-02-16T04:52:35.009Z,33.80
2019-02-16T04:55:03.012Z,29.80
2019-02-16T04:57:33.787Z,36.00
2019-02-16T05:00:04.357Z,37.40
2019-02-16T05:02:35.946Z,36.00
2019-02-16T05:05:06.754Z,39.00
2019-02-16T05:07:37.401Z,35.00
2019-02-16T05:10:08.216Z,32.60
2019-02-16T05:12:38.956Z,39.60
2019-02-16T05:15:09.858Z,33.00
2019-02-16T05:17:40.655Z,37.80
2019-02-16T05:20:11.442Z,39.80
2019-02-16T05:22:44.866Z,40.00
2019-02-16T05:25:14.767Z,36.40
2019-02-16T05:27:45.557Z,39.00
2019-02-16T05:30:16.360Z,36.00
2019-02-16T05:32:48.146Z,34.00
2019-02-16T05:35:19.970Z,35.40
2019-02-16T05:37:50.609Z,37.00
2019-02-16T05:40:21.507Z,37.00
2019-02-16T05:42:52.076Z,35.80
2019-02-16T05:45:22.986Z,32.60
2019-02-16T05:47:53.749Z,31.60
2019-02-16T05:50:24.439Z,36.40
2019-02-16T05:52:55.209Z,31.00
2019-02-16T05:55:25.911Z,35.80
2019-02-16T05:57:56.602Z,38.60
2019-02-16T06:00:29.402Z,32.60
2019-02-16T06:03:00.230Z,32.00
2019-02-16T06:05:30.984Z,31.60
2019-02-16T06:08:42.652Z,31.40
2019-02-16T06:11:13.441Z,40.80
2019-02-16T06:13:44.204Z,34.80
2019-02-16T06:16:14.906Z,35.80
2019-02-16T06:18:45.654Z,32.00
2019-02-16T06:21:16.346Z,34.20
2019-02-16T06:23:47.153Z,38.25
2019-02-16T06:26:17.933Z,38.00
2019-02-16T06:28:48.582Z,33.00
2019-02-16T06:31:19.278Z,32.50
2019-02-16T06:33:50.081Z,39.00
2019-02-16T06:36:25.621Z,36.00
2019-02-16T06:38:56.310Z,36.60
2019-02-16T06:41:27.114Z,40.00
2019-02-16T06:47:13.230Z,36.40
2019-02-16T06:49:44.011Z,42.40
2019-02-16T06:52:14.829Z,34.00
2019-02-16T06:54:45.607Z,42.20
2019-02-16T06:57:23.309Z,40.00
2019-02-16T06:59:54.213Z,39.40
2019-02-16T07:02:25.903Z,39.50
2019-02-16T07:04:56.713Z,40.50
2019-02-16T07:07:27.472Z,42.80
2019-02-16T07:09:58.270Z,36.40
2019-02-16T07:12:28.967Z,38.00
2019-02-16T07:15:04.761Z,38.40
2019-02-16T07:18:00.814Z,41.40
2019-02-16T07:20:31.593Z,34.80
2019-02-16T07:23:02.216Z,37.20
2019-02-16T07:25:32.870Z,40.00
2019-02-16T07:28:03.553Z,43.00
2019-02-16T07:30:34.357Z,34.20
2019-02-16T07:33:05.040Z,40.40
2019-02-16T07:35:35.721Z,39.00
2019-02-16T07:38:06.763Z,37.00
2019-02-16T07:40:37.583Z,41.75
2019-02-16T07:43:09.988Z,46.00
2019-02-16T07:46:05.706Z,43.60
2019-02-16T07:48:57.226Z,39.60
2019-02-16T07:51:45.981Z,40.25
2019-02-16T07:54:35.774Z,41.00
2019-02-16T07:57:33.446Z,39.80
2019-02-16T08:00:22.078Z,41.50
2019-02-16T08:03:20.664Z,39.40
2019-02-16T08:06:10.454Z,37.00
2019-02-16T08:08:48.348Z,36.40
2019-02-16T08:11:40.894Z,41.75
2019-02-16T08:14:21.862Z,40.00
2019-02-16T08:17:04.782Z,36.20
2019-02-16T08:20:06.597Z,40.00
2019-02-16T08:22:53.350Z,34.00
2019-02-16T08:25:55.154Z,33.00
2019-02-16T08:28:37.007Z,34.20
2019-02-16T08:31:17.465Z,33.00
2019-02-16T08:34:10.113Z,34.80
2019-02-16T08:36:47.604Z,29.60
2019-02-16T08:39:37.384Z,36.75
2019-02-16T08:42:39.245Z,34.40
2019-02-16T08:45:17.147Z,29.20
2019-02-16T08:47:58.222Z,29.40
2019-02-16T08:50:50.986Z,81.80
2019-02-16T08:53:30.922Z,38.00
2019-02-16T08:56:20.599Z,34.00
2019-02-16T08:59:16.215Z,52.00
2019-02-16T09:02:11.729Z,46.40
2019-02-16T09:04:52.294Z,30.80
2019-02-16T09:07:44.860Z,33.00
2019-02-16T09:10:33.492Z,26.40
2019-02-16T09:13:19.175Z,28.50
2019-02-16T09:16:18.170Z,23.00
2019-02-16T09:18:59.449Z,30.20
2019-02-16T09:21:47.898Z,25.00
2019-02-16T09:24:28.359Z,23.40
2019-02-16T09:27:14.659Z,28.40
2019-02-16T09:30:13.756Z,22.00
2019-02-16T09:33:06.714Z,25.40
2019-02-16T09:35:50.449Z,19.00
2019-02-16T09:38:43.197Z,20.40
2019-02-16T09:41:35.536Z,24.00
2019-02-16T09:44:24.292Z,30.25
2019-02-16T09:47:14.077Z,41.75
2019-02-16T09:50:04.699Z,33.00
2019-02-16T09:52:51.581Z,30.50
2019-02-16T09:55:59.896Z,24.00
2019-02-16T09:58:58.687Z,20.60
2019-02-16T10:01:57.786Z,23.00
2019-02-16T10:04:56.372Z,20.00
2019-02-16T10:07:51.680Z,17.80
2019-02-16T10:10:47.712Z,15.60
2019-02-16T10:13:40.250Z,16.60
2019-02-16T10:16:48.564Z,14.20
2019-02-16T10:19:31.894Z,16.60
2019-02-16T10:22:33.655Z,15.40
2019-02-16T10:25:14.115Z,17.00
2019-02-16T10:28:02.870Z,24.00
2019-02-16T10:31:01.569Z,35.00
2019-02-16T10:33:51.237Z,20.80
2019-02-16T10:36:34.975Z,25.00
2019-02-16T10:39:29.055Z,19.00
2019-02-16T10:42:10.642Z,19.60
2019-02-16T10:44:50.695Z,23.60
2019-02-16T10:47:59.113Z,21.80
2019-02-16T10:50:46.023Z,21.60
2019-02-16T10:53:28.635Z,19.80
2019-02-16T10:56:23.739Z,17.00
2019-02-16T10:59:02.869Z,20.40
2019-02-16T11:01:51.524Z,16.60
2019-02-16T11:04:40.381Z,20.00
2019-02-16T11:07:39.276Z,15.00
2019-02-16T11:10:31.716Z,18.00
2019-02-16T11:13:27.333Z,19.60
2019-02-16T11:16:13.837Z,23.50
2019-02-16T11:19:06.790Z,22.80
2019-02-16T11:21:53.089Z,21.60
2019-02-16T11:24:41.742Z,16.40
2019-02-16T11:27:31.521Z,18.00
2019-02-16T11:30:19.048Z,26.60
2019-02-16T11:33:08.938Z,31.50
2019-02-16T11:35:52.362Z,24.80
2019-02-16T11:38:29.238Z,18.40
2019-02-16T11:41:30.897Z,29.25
2019-02-16T11:44:26.820Z,69.80
2019-02-16T11:47:23.790Z,36.80
2019-02-16T11:50:11.097Z,43.00
2019-02-16T11:53:13.056Z,18.00
2019-02-16T11:55:56.413Z,30.80
2019-02-16T11:58:48.827Z,40.80
2019-02-16T12:01:37.378Z,30.80
2019-02-16T12:04:36.376Z,35.75
2019-02-16T12:07:14.377Z,28.00
2019-02-16T12:10:10.915Z,15.50
2019-02-16T12:13:02.640Z,20.50
2019-02-16T12:15:55.186Z,16.60
2019-02-16T12:18:40.050Z,20.00
2019-02-16T12:21:35.667Z,14.60
2019-02-16T12:24:31.487Z,15.60
2019-02-16T12:27:10.208Z,15.60
2019-02-16T12:29:58.963Z,27.20
2019-02-16T12:32:48.772Z,30.00
2019-02-16T12:35:41.801Z,29.50
2019-02-16T12:38:30.352Z,25.00
2019-02-16T12:41:20.158Z,30.00
2019-02-16T12:44:08.786Z,16.20
2019-02-16T12:46:48.016Z,13.60
2019-02-16T12:49:46.706Z,15.60
2019-02-16T12:52:48.877Z,18.80
2019-02-16T12:55:47.667Z,17.40
2019-02-16T12:58:27.822Z,14.25
2019-02-16T13:01:20.572Z,17.00
2019-02-16T13:04:16.302Z,15.00
2019-02-16T13:07:05.249Z,13.00
2019-02-16T13:09:44.148Z,12.60
2019-02-16T13:12:20.645Z,12.80
2019-02-16T13:15:10.319Z,15.50
2019-02-16T13:17:59.997Z,14.00
2019-02-16T13:20:49.777Z,14.50
2019-02-16T13:23:44.983Z,13.00
2019-02-16T13:26:30.769Z,14.00
2019-02-16T13:29:39.288Z,11.50
2019-02-16T13:33:14.124Z,13.00
2019-02-16T13:36:09.536Z,12.00
2019-02-16T13:39:02.184Z,13.00
2019-02-16T13:41:52.578Z,13.00
2019-02-16T13:44:44.200Z,13.00
2019-02-16T13:47:20.257Z,13.00
2019-02-16T13:50:01.539Z,13.00
2019-02-16T13:52:57.462Z,12.00
2019-02-16T13:55:59.531Z,28.00
2019-02-16T13:58:37.842Z,14.00
2019-02-16T14:01:25.298Z,16.00
2019-02-16T14:04:22.729Z,19.40
2019-02-16T14:07:12.521Z,13.60
2019-02-16T14:10:06.807Z,15.60
2019-02-16T14:12:56.879Z,30.00
2019-02-16T14:15:46.685Z,15.80
2019-02-16T14:18:17.391Z,15.00
2019-02-16T14:20:48.057Z,15.60
2019-02-16T14:23:18.855Z,18.60
2019-02-16T14:25:50.946Z,16.50
2019-02-16T14:28:21.830Z,17.00
2019-02-16T14:30:52.414Z,17.00
2019-02-16T14:33:23.193Z,17.60
2019-02-16T14:35:54.001Z,20.60
2019-02-16T14:38:48.144Z,27.50
2019-02-16T14:41:18.906Z,21.00
2019-02-16T14:43:49.773Z,15.40
2019-02-16T14:46:20.694Z,18.75
2019-02-16T14:48:51.339Z,19.60
2019-02-16T14:51:22.046Z,18.40
2019-02-16T14:53:52.802Z,15.60
2019-02-16T14:56:23.414Z,22.50
2019-02-16T14:58:54.235Z,20.00
2019-02-16T15:01:24.970Z,19.25
2019-02-16T15:03:55.761Z,22.00
2019-02-16T15:06:26.477Z,26.50
2019-02-16T15:08:57.221Z,21.00
2019-02-16T15:11:28.040Z,19.60
2019-02-16T15:13:58.782Z,32.60
2019-02-16T15:16:29.400Z,24.20
2019-02-16T15:19:00.249Z,21.00
2019-02-16T15:21:31.042Z,34.00
2019-02-16T15:24:01.855Z,17.00
2019-02-16T15:26:32.603Z,26.20
2019-02-16T15:29:03.406Z,26.80
2019-02-16T15:31:34.182Z,36.20
2019-02-16T15:34:04.989Z,41.25
2019-02-16T15:36:35.750Z,30.00
2019-02-16T15:39:07.378Z,25.00
2019-02-16T15:41:38.242Z,18.20
2019-02-16T15:44:10.708Z,24.40
2019-02-16T15:46:41.458Z,20.20
2019-02-16T15:49:12.227Z,30.00
2019-02-16T15:51:43.051Z,19.00
2019-02-16T15:54:13.726Z,21.50
2019-02-16T15:56:44.484Z,23.40
2019-02-16T15:59:15.243Z,22.80
2019-02-16T16:01:45.867Z,26.00
2019-02-16T16:04:16.562Z,27.60
2019-02-16T16:06:47.221Z,32.80
2019-02-16T16:09:27.445Z,32.60
2019-02-16T16:12:07.394Z,34.40
2019-02-16T16:14:49.186Z,29.20
2019-02-16T16:17:38.370Z,27.80
2019-02-16T16:20:27.414Z,52.40
2019-02-16T16:23:18.321Z,26.40
2019-02-16T16:26:20.186Z,37.00
2019-02-16T16:29:28.292Z,45.00
2019-02-16T16:32:27.186Z,47.75
2019-02-16T16:35:22.802Z,53.60
2019-02-16T16:38:04.391Z,48.00
2019-02-16T16:40:44.955Z,35.00
2019-02-16T16:43:33.402Z,26.60
2019-02-16T16:46:41.517Z,19.00
2019-02-16T16:49:31.290Z,20.40
2019-02-16T16:52:09.255Z,18.20
2019-02-16T16:54:56.208Z,19.00
2019-02-16T16:57:45.681Z,19.40
2019-02-16T17:00:41.500Z,16.20
2019-02-16T17:03:34.147Z,18.00
2019-02-16T17:06:16.963Z,20.00
2019-02-16T17:09:15.755Z,22.00
2019-02-16T17:12:04.511Z,20.40
2019-02-16T17:14:59.616Z,24.00
2019-02-16T17:18:07.621Z,29.25
2019-02-16T17:42:44.645Z,50.60
2019-02-16T17:49:21.448Z,41.25
2019-02-16T18:21:17.578Z,44.80
2019-02-16T18:24:11.845Z,39.00
2019-02-16T18:27:19.854Z,41.75
2019-02-16T18:30:04.718Z,46.00
2019-02-16T18:50:19.805Z,35.40
2019-02-16T18:53:02.921Z,38.00
2019-02-16T19:10:48.819Z,34.80
2019-02-16T20:59:47.470Z,46.25
2019-02-16T21:02:52.301Z,48.00
2019-02-16T21:05:48.224Z,43.80
2019-02-16T21:08:40.772Z,47.00
2019-02-16T21:11:30.552Z,42.00
2019-02-16T21:14:15.748Z,43.40
2019-02-16T21:16:58.027Z,39.50
2019-02-16T21:19:53.851Z,42.50
2019-02-16T21:22:41.885Z,42.00
2019-02-16T21:25:27.773Z,40.00
2019-02-16T21:28:17.552Z,42.20
2019-02-16T21:31:13.374Z,40.75
2019-02-16T21:34:10.628Z,38.80
2019-02-16T21:36:58.773Z,41.20
2019-02-16T21:40:03.910Z,44.75
2019-02-16T21:53:21.403Z,40.20
2019-02-16T21:56:01.302Z,40.00
2019-02-16T21:58:50.412Z,37.60
2019-02-16T22:01:32.414Z,41.80
2019-02-16T22:04:38.472Z,41.50
2019-02-16T22:07:23.645Z,37.80
2019-02-16T22:10:19.361Z,37.00
2019-02-16T22:13:08.629Z,36.80
2019-02-16T22:15:40.317Z,37.00
2019-02-16T22:18:11.081Z,38.00
2019-02-16T22:20:41.752Z,43.80
2019-02-16T22:23:13.679Z,42.25
2019-02-16T22:25:44.367Z,43.80
2019-02-16T22:28:18.645Z,40.00
2019-02-16T22:30:46.862Z,41.00
2019-02-16T22:33:17.736Z,39.50
2019-02-16T22:35:48.422Z,43.00
2019-02-16T22:38:19.304Z,43.00
2019-02-16T22:40:50.112Z,45.00
2019-02-16T22:43:20.790Z,41.00
2019-02-16T22:45:51.663Z,44.00
2019-02-16T22:48:22.356Z,45.75
2019-02-16T22:50:53.024Z,41.40
2019-02-16T22:53:23.814Z,45.60
2019-02-16T22:55:54.496Z,45.00
2019-02-16T22:58:29.155Z,43.00
2019-02-16T23:01:00.134Z,42.40
2019-02-16T23:03:32.481Z,39.60
2019-02-16T23:06:03.171Z,43.40
2019-02-16T23:08:33.957Z,43.25
2019-02-16T23:11:04.604Z,45.00
2019-02-16T23:13:35.478Z,42.00
2019-02-16T23:16:06.190Z,41.20
2019-02-16T23:18:36.972Z,48.00
2019-02-16T23:21:07.665Z,49.00
2019-02-16T23:23:38.476Z,45.25
2019-02-16T23:26:10.383Z,48.80
2019-02-16T23:28:41.131Z,44.00
2019-02-16T23:31:11.720Z,42.75
2019-02-16T23:33:42.393Z,44.00
2019-02-16T23:36:13.113Z,43.40
2019-02-16T23:38:43.988Z,47.75
2019-02-16T23:41:14.759Z,45.00
2019-02-16T23:43:45.538Z,45.00
2019-02-16T23:46:16.231Z,44.50
2019-02-16T23:48:46.998Z,48.00
2019-02-16T23:51:17.792Z,46.00
2019-02-16T23:53:48.695Z,45.50
2019-02-16T23:56:19.359Z,44.50
2019-02-16T23:58:50.252Z,44.00
